Dandridge, TN (37725)

1:52 PM EDT on March 28, 2017 (GMT -0400)
Dandridge | | Change Station

Elev 1220 ft 35.97 °N, 83.37 °W | Updated 15 seconds ago

Overcast
Overcast
65.7 °F
Feels Like 65.7 °F
N
15.9
Wind Variable Wind from SW
Gusts 17.4 mph

Today
High -- | Low -- °F
--% Chance of Precip.
Yesterday
High -- | Low -- °F
Precip. -- in
Pressure 29.99 in
Visibility 10.0 miles
Clouds Few 1900 ft
Scattered Clouds 2500 ft
Mostly Cloudy 5000 ft
Dew Point 55 °F
Humidity 69%
Rainfall 0.14 in
Snow Depth Not available.
7:25 AM 7:52 PM
New Moon, 1% visible
SPECI KTYS 281715Z 19007KT 10SM FEW019 SCT025 BKN050 19/14 A2999 RMK AO2 T01890139
Pressure 29.99 in
Visibility 10.0 miles
Clouds Few 1900 ft
Scattered Clouds 2500 ft
Mostly Cloudy 5000 ft
Dew Point 55 °F
Humidity 69%
Rainfall 0.14 in
Snow Depth Not available.
7:25 AM 7:52 PM
New Moon, 1% visible
SPECI KTYS 281715Z 19007KT 10SM FEW019 SCT025 BKN050 19/14 A2999 RMK AO2 T01890139

Get Severe Weather Alerts

Thanks for signing up!

Be on the lookout for a verification email in your inbox.

You'll start receiving the daily forecast at 8 AM.

×

10-Day Weather Forecast

Almanac

Astronomy

Mar. 28, 2017 Rise Set
Actual Time
Civil Twilight
Nautical Twilight
Astronomical Twilight
Moon
Length of Visible Light
Length of Day
Tomorrow will be .
, % of the Moon is Illuminated

Today's Extremes

State Highs State Lows

Community

WunderPhotos

Upload Photos

1,962,540 photos uploaded!

WunderBlog® & News

Nearby

Air Quality

  Air Quality AQ Index Pollutant
Not available.

Snow Depth

Station Depth Elevation

Earthquake Activity

City Distance Mag. Time & Date
Minimum magnitude displayed is 2.5.

Earthquake Activity

City Distance Mag. Time & Date
Minimum magnitude displayed is 2.5.

Coastal Water Temperatures

Place Temperature

Stations

Nearby Weather Stations

Station Location Temp. Windchill Dew Point Humidity Wind Precip. Elev Updated Type
                   

Watches & Warnings

There are currently no watches in effect.